Time;durP1;ratioP1;P1;durP2;ratioP2;P2;SDS_P1;SDS_P2;PMS_P1;PMS_P2;Temp;Humidity;BMP_temperature;BMP_pressure;BME280_temperature;BME280_humidity;BME280_pressure;Samples;Min_cycle;Max_cycle;Signal;HPM_P1;HPM_P2
2024/01/31 00:02:04;;;;;;;;;;;;;;;5.34;100.00;101326.66;4909255;29;19923;-82
2024/01/31 00:04:30;;;;;;;;;;;;;;;5.34;100.00;101329.28;4926979;29;19923;-83
2024/01/31 00:06:56;;;;;;;;;;;;;;;5.31;100.00;101334.53;4927003;29;20017;-83
2024/01/31 00:09:21;;;;;;;;;;;;;;;5.33;100.00;101335.44;4925044;29;20014;-82
2024/01/31 00:11:46;;;;;;;;;;;;;;;5.35;100.00;101343.31;4926709;29;20013;-83
2024/01/31 00:14:15;;;;;;;;;;;;;;;5.33;100.00;101340.69;4926378;29;20072;-83
2024/01/31 00:16:42;;;;;;;;;;;;;;;5.41;100.00;101338.09;4933485;29;20017;-82
2024/01/31 00:19:07;;;;;;;;;;;;;;;5.32;100.00;101338.91;4909063;29;19919;-82
2024/01/31 00:21:32;;;;;;;;;;;;;;;5.36;100.00;101339.78;4926927;29;19927;-84
2024/01/31 00:23:58;;;;;;;;;;;;;;;5.32;100.00;101336.28;4925116;29;20430;-84
2024/01/31 00:26:23;;;;;;;;;;;;;;;5.32;100.00;101344.16;4926127;29;20363;-82
2024/01/31 00:28:49;;;;;;;;;;;;;;;5.35;100.00;101338.06;4926207;29;20260;-82
2024/01/31 00:31:14;;;;;;;;;;;;;;;5.37;100.00;101337.19;4926548;29;19923;-83
2024/01/31 00:33:39;;;;;;;;;;;;;;;5.44;100.00;101348.56;4926579;29;20006;-87
2024/01/31 00:36:05;;;;;;;;;;;;;;;5.44;100.00;101338.97;4927287;29;20391;-80
2024/01/31 00:38:30;;;;;;;;;;;;;;;5.43;100.00;101349.47;4926715;29;19915;-85
2024/01/31 00:40:55;;;;;;;;;;;;;;;5.44;100.00;101345.94;4924616;29;20371;-84
2024/01/31 00:43:20;;;;;;;;;;;;;;;5.39;100.00;101338.09;4926171;29;20361;-85
2024/01/31 00:45:45;;;;;;;;;;;;;;;5.40;100.00;101336.31;4926098;29;19918;-82
2024/01/31 06:11:23;;;;;;;;;;;;;;;5.40;100.00;101379.25;5181405;23;19978;-81
2024/01/31 06:13:48;;;;;;;;;;;;;;;5.44;100.00;101385.38;4928623;29;19962;-79
2024/01/31 06:16:14;;;;;;;;;;;;;;;5.42;100.00;101382.75;4928713;29;20364;-81
2024/01/31 06:18:40;;;;;;;;;;;;;;;5.41;100.00;101391.53;4928922;29;20343;-81
2024/01/31 06:21:05;;;;;;;;;;;;;;;5.41;100.00;101382.78;4928710;29;19967;-81
2024/01/31 06:23:30;;;;;;;;;;;;;;;5.40;100.00;101383.63;4928483;29;19930;-82
2024/01/31 06:25:56;;;;;;;;;;;;;;;5.42;100.00;101374.88;4927882;29;19923;-81
2024/01/31 06:28:21;;;;;;;;;;;;;;;5.42;100.00;101374.88;4928181;29;19919;-80
2024/01/31 06:30:58;;;;;;;;;;;;;;;5.41;100.00;101364.38;4928818;29;19919;-80
2024/01/31 06:33:27;;;;;;;;;;;;;;;5.41;100.00;101367.00;4928429;29;19930;-82
2024/01/31 06:35:52;;;;;;;;;;;;;;;5.39;100.00;101361.75;4928451;29;19919;-81
2024/01/31 06:38:17;;;;;;;;;;;;;;;5.40;100.00;101360.84;4928154;29;19990;-81
2024/01/31 06:40:43;;;;;;;;;;;;;;;5.38;100.00;101370.47;4926901;29;19919;-80
2024/01/31 06:43:08;;;;;;;;;;;;;;;5.40;100.00;101362.59;4928536;29;20420;-81
2024/01/31 06:45:33;;;;;;;;;;;;;;;5.38;100.00;101364.38;4928297;29;19923;-82
2024/01/31 06:48:00;;;;;;;;;;;;;;;5.39;100.00;101361.75;4927895;29;20406;-81
2024/01/31 06:50:26;;;;;;;;;;;;;;;5.38;100.00;101364.38;4928819;29;20089;-81
2024/01/31 06:52:51;;;;;;;;;;;;;;;5.38;100.00;101359.97;4928044;29;20294;-82
2024/01/31 06:55:16;;;;;;;;;;;;;;;5.40;100.00;101360.84;4926729;29;19915;-81
2024/01/31 06:57:42;;;;;;;;;;;;;;;5.41;100.00;101359.13;4928254;29;19942;-80
2024/01/31 07:00:10;;;;;;;;;;;;;;;5.39;100.00;101371.34;4928499;29;19925;-81
2024/01/31 07:02:35;;;;;;;;;;;;;;;5.37;100.00;101370.47;4928264;29;19920;-80
2024/01/31 07:05:01;;;;;;;;;;;;;;;5.36;100.00;101369.63;4927672;29;20457;-81
2024/01/31 07:07:26;;;;;;;;;;;;;;;5.37;100.00;101379.22;4927944;29;19978;-80
2024/01/31 07:09:51;;;;;;;;;;;;;;;5.39;100.00;101379.25;4925284;29;19970;-81
2024/01/31 07:12:16;;;;;;;;;;;;;;;5.38;100.00;101370.47;4927532;29;19969;-81
2024/01/31 07:14:42;;;;;;;;;;;;;;;5.35;100.00;101382.75;4926875;29;20366;-81
2024/01/31 07:17:07;;;;;;;;;;;;;;;5.37;100.00;101387.13;4927681;29;19926;-81
2024/01/31 07:19:33;;;;;;;;;;;;;;;5.37;100.00;101392.38;4927168;29;20790;-81
2024/01/31 07:21:58;;;;;;;;;;;;;;;5.35;100.00;101390.63;4927414;29;19918;-80
2024/01/31 07:24:23;;;;;;;;;;;;;;;5.39;100.00;101393.28;4928092;29;19938;-80
2024/01/31 07:26:48;;;;;;;;;;;;;;;5.41;100.00;101393.28;4926732;29;19925;-81
2024/01/31 07:29:14;;;;;;;;;;;;;;;5.40;100.00;101394.16;4927285;29;19923;-80
2024/01/31 07:31:39;;;;;;;;;;;;;;;5.41;100.00;101390.66;4909912;29;19925;-81
2024/01/31 07:34:05;;;;;;;;;;;;;;;5.39;100.00;101389.75;4927676;29;19915;-81
2024/01/31 07:36:30;;;;;;;;;;;;;;;5.40;100.00;101384.50;4933848;29;19975;-80
2024/01/31 07:38:55;;;;;;;;;;;;;;;5.39;100.00;101384.50;4908630;29;19926;-81
2024/01/31 07:41:21;;;;;;;;;;;;;;;5.38;100.00;101369.63;4925950;29;20371;-80
2024/01/31 07:43:46;;;;;;;;;;;;;;;5.37;100.00;101373.97;4926869;29;20385;-80
2024/01/31 07:46:11;;;;;;;;;;;;;;;5.35;100.00;101369.59;4928001;29;19922;-80
2024/01/31 07:48:37;;;;;;;;;;;;;;;5.37;100.00;101371.34;4926761;29;20405;-80
2024/01/31 07:51:03;;;;;;;;;;;;;;;5.39;100.00;101377.50;4927166;29;19926;-80
2024/01/31 07:53:28;;;;;;;;;;;;;;;5.38;100.00;101377.50;4927040;29;19926;-81
2024/01/31 07:55:53;;;;;;;;;;;;;;;5.37;100.00;101383.63;4925563;29;19919;-80
2024/01/31 07:58:18;;;;;;;;;;;;;;;5.38;100.00;101388.03;4926866;29;19926;-81
2024/01/31 08:00:44;;;;;;;;;;;;;;;5.35;100.00;101385.38;4926893;29;20390;-81
2024/01/31 08:03:09;;;;;;;;;;;;;;;5.34;100.00;101383.59;4927005;29;19923;-82
2024/01/31 08:05:34;;;;;;;;;;;;;;;5.35;100.00;101388.00;4926583;29;19919;-82
2024/01/31 08:58:29;;;;;;;;;;;;;;;5.40;100.00;101399.41;4903230;29;19974;-78
2024/01/31 09:00:55;;;;;;;;;;;;;;;5.40;100.00;101396.78;4906720;29;20359;-78
2024/01/31 09:03:21;;;;;;;;;;;;;;;5.35;100.00;101390.63;4907266;29;20294;-79
2024/01/31 09:05:46;;;;;;;;;;;;;;;5.38;100.00;101401.16;4889714;29;19920;-80
2024/01/31 09:08:11;;;;;;;;;;;;;;;5.35;100.00;101402.00;4906398;29;19947;-79
2024/01/31 09:10:37;;;;;;;;;;;;;;;5.36;100.00;101393.28;4905541;29;20038;-78
2024/01/31 09:13:02;;;;;;;;;;;;;;;5.36;100.00;101397.63;4906443;29;19990;-79
2024/01/31 09:15:27;;;;;;;;;;;;;;;5.37;100.00;101399.41;4905932;29;19920;-79
2024/01/31 09:17:52;;;;;;;;;;;;;;;5.35;100.00;101395.91;4908256;29;20014;-78
2024/01/31 09:20:18;;;;;;;;;;;;;;;5.39;100.00;101397.63;4908591;29;19919;-79
2024/01/31 09:22:43;;;;;;;;;;;;;;;5.50;100.00;101395.94;4907240;29;19975;-79
2024/01/31 09:25:10;;;;;;;;;;;;;;;8.09;100.00;101382.34;4906583;29;20010;-79
2024/01/31 09:27:36;;;;;;;;;;;;;;;8.82;100.00;101381.75;4906681;29;20431;-79
2024/01/31 09:30:03;;;;;;;;;;;;;;;8.76;100.00;101388.00;4908386;29;19919;-83
2024/01/31 09:32:28;;;;;;;;;;;;;;;6.44;100.00;101397.88;4905994;29;20294;-84
2024/01/31 09:34:54;;;;;;;;;;;;;;;5.48;100.00;101400.31;4906988;29;19923;-81
2024/01/31 09:37:19;;;;;;;;;;;;;;;5.03;100.00;101393.97;4907929;29;20294;-80
2024/01/31 09:39:44;;;;;;;;;;;;;;;4.91;100.00;101395.66;4904981;29;19995;-85
2024/01/31 09:42:10;;;;;;;;;;;;;;;4.64;100.00;101395.47;4902538;29;19931;-84
2024/01/31 09:44:35;;;;;;;;;;;;;;;4.47;100.00;101403.25;4907172;29;19927;-80
2024/01/31 09:47:01;;;;;;;;;;;;;;;4.27;100.00;101400.44;4906694;29;19923;-80
2024/01/31 09:49:26;;;;;;;;;;;;;;;4.23;100.00;101396.91;4889597;29;19930;-81
2024/01/31 09:51:59;;;;;;;;;;;;;;;4.11;100.00;101394.16;4905970;29;20294;-81
2024/01/31 09:54:25;;;;;;;;;;;;;;;4.15;100.00;101394.22;4905752;29;20411;-81
2024/01/31 09:56:50;;;;;;;;;;;;;;;3.97;100.00;101391.41;4905084;29;19967;-81
2024/01/31 09:59:16;;;;;;;;;;;;;;;3.98;100.00;101398.41;4906003;29;20405;-80
2024/01/31 10:01:42;;;;;;;;;;;;;;;3.87;100.00;101394.81;4906398;29;19923;-81
2024/01/31 10:04:07;;;;;;;;;;;;;;;3.77;100.00;101393.84;4906341;29;20341;-81
2024/01/31 10:06:33;;;;;;;;;;;;;;;3.77;100.00;101388.59;4906186;29;19927;-81
2024/01/31 10:08:58;;;;;;;;;;;;;;;3.74;100.00;101388.56;4912326;29;19919;-82
2024/01/31 10:11:27;;;;;;;;;;;;;;;3.68;100.00;101388.50;4904807;29;20407;-82
2024/01/31 10:13:52;;;;;;;;;;;;;;;3.68;100.00;101384.13;4906203;29;19919;-84
2024/01/31 10:16:18;;;;;;;;;;;;;;;3.60;100.00;101370.91;4906331;29;20343;-83
2024/01/31 10:18:43;;;;;;;;;;;;;;;3.57;100.00;101375.25;4905932;29;19919;-84
2024/01/31 10:21:09;;;;;;;;;;;;;;;3.55;100.00;101367.38;4905653;29;20383;-82
2024/01/31 10:23:34;;;;;;;;;;;;;;;3.51;100.00;101364.69;4906243;29;19990;-82
2024/01/31 10:25:59;;;;;;;;;;;;;;;3.46;100.00;101359.41;4904873;29;20391;-82
2024/01/31 10:28:27;;;;;;;;;;;;;;;3.42;100.00;101360.25;4906314;29;19966;-80
2024/01/31 10:30:52;;;;;;;;;;;;;;;3.42;100.00;101360.25;4888959;29;19920;-81
2024/01/31 10:33:18;;;;;;;;;;;;;;;3.29;100.00;101361.84;4905796;29;19930;-82
2024/01/31 10:35:45;;;;;;;;;;;;;;;3.36;100.00;101353.19;4906004;29;19923;-82
2024/01/31 10:38:12;;;;;;;;;;;;;;;3.35;100.00;101350.53;4905697;29;19920;-82
2024/01/31 10:40:39;;;;;;;;;;;;;;;3.30;100.00;101345.25;4904416;29;19959;-82
2024/01/31 10:43:05;;;;;;;;;;;;;;;3.34;100.00;101338.31;4907132;29;19923;-82
2024/01/31 10:45:33;;;;;;;;;;;;;;;3.30;100.00;101336.50;4909445;29;19931;-83
2024/01/31 10:47:58;;;;;;;;;;;;;;;3.30;100.00;101336.50;4909065;29;19919;-84
2024/01/31 10:50:24;;;;;;;;;;;;;;;3.43;100.00;101335.78;4909560;29;20402;-84
2024/01/31 10:52:50;;;;;;;;;;;;;;;3.71;100.00;101331.72;4910423;29;19927;-86
2024/01/31 10:55:16;;;;;;;;;;;;;;;4.07;100.00;101324.16;4908292;29;19926;-80
2024/01/31 10:57:42;;;;;;;;;;;;;;;4.26;100.00;101327.81;4909235;29;20327;-80
2024/01/31 11:00:21;;;;;;;;;;;;;;;4.39;100.00;101341.91;4910037;29;19945;-79
2024/01/31 11:02:46;;;;;;;;;;;;;;;4.52;100.00;101341.13;4909147;29;19955;-81
2024/01/31 11:05:14;;;;;;;;;;;;;;;4.58;100.00;101335.03;4909118;29;20453;-79
2024/01/31 11:07:46;;;;;;;;;;;;;;;4.63;100.00;101333.34;4908855;29;20275;-81
2024/01/31 11:10:20;;;;;;;;;;;;;;;4.66;100.00;101330.69;4907485;29;19929;-85
2024/01/31 11:13:02;;;;;;;;;;;;;;;4.71;100.00;101342.13;4908738;29;19920;-83
2024/01/31 11:15:31;;;;;;;;;;;;;;;4.73;100.00;101335.13;4908872;29;19919;-80
2024/01/31 11:18:08;;;;;;;;;;;;;;;4.71;100.00;101322.00;4908555;29;19927;-81
2024/01/31 11:20:50;;;;;;;;;;;;;;;4.76;100.00;101322.03;4907155;29;19963;-79
2024/01/31 11:23:16;;;;;;;;;;;;;;;4.78;100.00;101320.28;4906860;29;19927;-81
2024/01/31 11:25:43;;;;;;;;;;;;;;;4.89;100.00;101322.97;4904202;29;19970;-81
2024/01/31 11:28:09;;;;;;;;;;;;;;;4.85;100.00;101318.56;4906219;29;19990;-83
2024/01/31 11:30:34;;;;;;;;;;;;;;;4.87;100.00;101320.34;4905194;29;19970;-83
2024/01/31 11:33:01;;;;;;;;;;;;;;;4.85;100.00;101321.19;4906796;29;20383;-85
2024/01/31 11:35:28;;;;;;;;;;;;;;;4.87;100.00;101320.34;4903621;29;19928;-80
2024/01/31 11:37:54;;;;;;;;;;;;;;;4.90;100.00;101309.84;4907212;29;19937;-83
2024/01/31 11:40:19;;;;;;;;;;;;;;;4.91;100.00;101306.34;4907233;29;20287;-79
2024/01/31 11:42:46;;;;;;;;;;;;;;;4.95;100.00;101301.13;4891301;29;19927;-83
2024/01/31 11:45:11;;;;;;;;;;;;;;;4.99;100.00;101298.47;4907275;29;19919;-81
2024/01/31 11:47:37;;;;;;;;;;;;;;;5.02;100.00;101295.00;4907916;29;20363;-81
2024/01/31 11:50:04;;;;;;;;;;;;;;;5.01;100.00;101295.88;4907890;29;19927;-81
2024/01/31 11:52:30;;;;;;;;;;;;;;;4.98;100.00;101299.38;4907780;29;19934;-81
2024/01/31 11:54:55;;;;;;;;;;;;;;;5.04;100.00;101291.53;4907055;29;19927;-82
2024/01/31 11:57:20;;;;;;;;;;;;;;;4.99;100.00;101287.09;4907680;29;19924;-82
2024/01/31 11:59:45;;;;;;;;;;;;;;;5.04;100.00;101285.38;4907284;29;19927;-81
2024/01/31 12:02:11;;;;;;;;;;;;;;;5.05;100.00;101289.75;4907788;29;19930;-83
2024/01/31 12:04:36;;;;;;;;;;;;;;;5.12;100.00;101283.66;4907562;29;20307;-83
2024/01/31 12:07:03;;;;;;;;;;;;;;;5.02;100.00;101280.09;4906135;29;19916;-80
2024/01/31 12:09:28;;;;;;;;;;;;;;;5.09;100.00;101278.41;4906750;29;19929;-81
2024/01/31 12:11:53;;;;;;;;;;;;;;;5.05;100.00;101271.38;4889769;29;19923;-83
2024/01/31 12:14:18;;;;;;;;;;;;;;;5.08;100.00;101269.63;4907277;29;20029;-84
2024/01/31 12:16:44;;;;;;;;;;;;;;;5.12;100.00;101270.50;4905810;29;19966;-79
2024/01/31 12:19:10;;;;;;;;;;;;;;;5.17;100.00;101271.41;4890150;29;20324;-83
2024/01/31 12:21:42;;;;;;;;;;;;;;;5.15;100.00;101259.13;4907164;29;20263;-80
2024/01/31 12:24:08;;;;;;;;;;;;;;;5.16;100.00;101246.00;4907106;29;19923;-81
2024/01/31 12:26:33;;;;;;;;;;;;;;;5.16;100.00;101246.00;4905751;29;20318;-83
2024/01/31 12:28:59;;;;;;;;;;;;;;;5.15;100.00;101241.59;4907256;29;19923;-86
2024/01/31 12:31:24;;;;;;;;;;;;;;;5.16;100.00;101234.63;4890048;29;19971;-83
2024/01/31 12:33:49;;;;;;;;;;;;;;;5.16;100.00;101232.00;4906911;29;19977;-83
2024/01/31 12:36:15;;;;;;;;;;;;;;;5.20;100.00;101224.13;4907499;29;19971;-82
2024/01/31 12:38:40;;;;;;;;;;;;;;;5.21;100.00;101222.38;4907347;29;19952;-81
2024/01/31 12:41:05;;;;;;;;;;;;;;;5.16;100.00;101222.34;4905736;29;20038;-82
2024/01/31 12:43:31;;;;;;;;;;;;;;;5.28;100.00;101216.22;4889861;29;19923;-82
2024/01/31 12:45:56;;;;;;;;;;;;;;;5.21;100.00;101207.47;4907722;29;19919;-82
2024/01/31 12:48:21;;;;;;;;;;;;;;;5.21;100.00;101202.22;4907287;29;20022;-79
2024/01/31 12:50:47;;;;;;;;;;;;;;;5.21;100.00;101194.31;4906644;29;19971;-83
2024/01/31 12:53:12;;;;;;;;;;;;;;;5.20;100.00;101187.34;4906973;29;19946;-89
2024/01/31 12:55:37;;;;;;;;;;;;;;;5.19;100.00;101182.94;4905944;29;19977;-82
2024/01/31 12:58:02;;;;;;;;;;;;;;;5.25;100.00;101175.06;4906882;29;19927;-82
2024/01/31 13:00:28;;;;;;;;;;;;;;;5.22;100.00;101175.06;4906713;29;19979;-82
2024/01/31 13:02:53;;;;;;;;;;;;;;;5.23;100.00;101163.69;4906672;29;20391;-82
2024/01/31 13:05:18;;;;;;;;;;;;;;;5.25;100.00;101163.69;4907154;29;19928;-82
2024/01/31 13:07:43;;;;;;;;;;;;;;;5.23;100.00;101163.69;4906036;29;20002;-82
2024/01/31 13:10:09;;;;;;;;;;;;;;;5.27;100.00;101168.06;4904942;29;19970;-83
2024/01/31 13:12:34;;;;;;;;;;;;;;;5.25;100.00;101172.44;4906587;29;19973;-79
2024/01/31 13:14:59;;;;;;;;;;;;;;;5.28;100.00;101179.44;4906817;29;20005;-82
2024/01/31 13:17:25;;;;;;;;;;;;;;;5.27;100.00;101175.06;4906360;29;20063;-82
2024/01/31 13:19:50;;;;;;;;;;;;;;;5.23;100.00;101166.31;4912520;29;19930;-83
2024/01/31 13:22:15;;;;;;;;;;;;;;;5.32;100.00;101164.56;4906273;29;20006;-81
2024/01/31 13:24:40;;;;;;;;;;;;;;;5.28;100.00;101164.56;4906352;29;19927;-85
2024/01/31 13:27:06;;;;;;;;;;;;;;;5.25;100.00;101164.56;4904862;29;19920;-82
2024/01/31 13:29:31;;;;;;;;;;;;;;;5.31;100.00;101162.81;4900353;29;19923;-84
2024/01/31 13:31:56;;;;;;;;;;;;;;;5.33;100.00;101164.56;4906414;29;19926;-81
2024/01/31 13:34:21;;;;;;;;;;;;;;;5.32;100.00;101159.31;4906073;29;19923;-82
2024/01/31 13:36:47;;;;;;;;;;;;;;;5.35;100.00;101164.56;4889423;29;19997;-81
2024/01/31 13:39:12;;;;;;;;;;;;;;;5.29;100.00;101170.69;4906590;29;20903;-80
2024/01/31 13:41:38;;;;;;;;;;;;;;;5.28;100.00;101163.66;4888185;29;19969;-81
2024/01/31 13:44:03;;;;;;;;;;;;;;;5.28;100.00;101159.31;4889645;29;20396;-82
2024/01/31 13:46:28;;;;;;;;;;;;;;;5.33;100.00;101161.03;4906719;29;19945;-79
2024/01/31 13:48:54;;;;;;;;;;;;;;;5.32;100.00;101167.19;4906549;29;19926;-83
2024/01/31 13:51:19;;;;;;;;;;;;;;;5.33;100.00;101177.72;4906157;29;19920;-83
2024/01/31 13:53:44;;;;;;;;;;;;;;;5.32;100.00;101172.47;4905894;29;19935;-83
2024/01/31 13:56:10;;;;;;;;;;;;;;;5.29;100.00;101165.44;4904970;29;19919;-80
2024/01/31 13:58:35;;;;;;;;;;;;;;;5.34;100.00;101158.41;4905931;29;19923;-82
2024/01/31 14:01:01;;;;;;;;;;;;;;;5.30;100.00;101156.69;4906004;29;20031;-82
2024/01/31 14:03:26;;;;;;;;;;;;;;;5.36;100.00;101153.16;4905855;29;19923;-81
2024/01/31 14:05:52;;;;;;;;;;;;;;;5.34;100.00;101152.28;4906470;29;20067;-81
2024/01/31 14:08:17;;;;;;;;;;;;;;;5.39;100.00;101146.19;4906212;29;19927;-82
2024/01/31 14:10:43;;;;;;;;;;;;;;;5.36;100.00;101140.91;4904484;29;19960;-88
2024/01/31 14:13:09;;;;;;;;;;;;;;;5.37;100.00;101147.03;4886798;29;19923;-81
2024/01/31 14:15:34;;;;;;;;;;;;;;;5.38;100.00;101141.78;4901255;29;19934;-82
2024/01/31 14:17:59;;;;;;;;;;;;;;;5.36;100.00;101140.91;4904916;29;19923;-85
2024/01/31 14:20:25;;;;;;;;;;;;;;;5.35;100.00;101136.53;4908787;29;19923;-85
2024/01/31 14:22:50;;;;;;;;;;;;;;;5.37;100.00;101129.50;4909783;29;19923;-81
2024/01/31 14:25:15;;;;;;;;;;;;;;;5.36;100.00;101138.28;4906473;29;20564;-79
2024/01/31 14:27:40;;;;;;;;;;;;;;;5.36;100.00;101140.03;4907073;29;20572;-83
2024/01/31 14:30:06;;;;;;;;;;;;;;;5.39;100.00;101150.53;4907053;29;19927;-78
2024/01/31 14:32:31;;;;;;;;;;;;;;;5.35;100.00;101147.03;4909327;29;19956;-82
2024/01/31 14:34:57;;;;;;;;;;;;;;;5.35;100.00;101149.66;4907477;29;20331;-80
2024/01/31 14:37:22;;;;;;;;;;;;;;;5.35;100.00;101139.16;4891577;29;20127;-81
2024/01/31 14:39:48;;;;;;;;;;;;;;;5.34;100.00;101144.41;4891219;29;19926;-82
2024/01/31 14:42:13;;;;;;;;;;;;;;;5.35;100.00;101147.03;4908242;29;19923;-82
2024/01/31 14:44:38;;;;;;;;;;;;;;;5.37;100.00;101145.28;4909711;29;19975;-81
2024/01/31 14:47:04;;;;;;;;;;;;;;;5.44;100.00;101143.53;4909046;29;19915;-82
2024/01/31 14:49:29;;;;;;;;;;;;;;;5.39;100.00;101151.44;4892013;29;20745;-82
2024/01/31 14:51:55;;;;;;;;;;;;;;;5.37;100.00;101154.94;4909328;29;19990;-81
2024/01/31 14:54:20;;;;;;;;;;;;;;;5.38;100.00;101147.03;4909100;29;19919;-79
2024/01/31 14:56:47;;;;;;;;;;;;;;;5.37;100.00;101141.78;4907314;29;19930;-84
2024/01/31 14:59:12;;;;;;;;;;;;;;;5.37;100.00;101150.53;4909094;29;19926;-84
2024/01/31 15:01:38;;;;;;;;;;;;;;;5.37;100.00;101153.16;4909300;29;19923;-82
2024/01/31 15:04:03;;;;;;;;;;;;;;;5.37;100.00;101154.94;4909082;29;19965;-86
2024/01/31 15:06:28;;;;;;;;;;;;;;;5.37;100.00;101160.19;4908654;29;19928;-85
2024/01/31 15:08:54;;;;;;;;;;;;;;;5.36;100.00;101154.06;4909071;29;19919;-83
2024/01/31 15:11:19;;;;;;;;;;;;;;;5.36;100.00;101161.06;4907940;29;19927;-82
2024/01/31 15:13:44;;;;;;;;;;;;;;;5.37;100.00;101157.56;4908770;29;20454;-81
2024/01/31 15:16:13;;;;;;;;;;;;;;;5.39;100.00;101156.69;4876606;29;20342;-81
2024/01/31 15:18:38;;;;;;;;;;;;;;;5.37;100.00;101163.69;4909256;29;19923;-82
2024/01/31 15:21:04;;;;;;;;;;;;;;;5.35;100.00;101156.69;4908611;29;19919;-83
2024/01/31 15:23:29;;;;;;;;;;;;;;;5.44;100.00;101154.03;4908191;29;19923;-82
2024/01/31 15:25:54;;;;;;;;;;;;;;;5.37;100.00;101153.16;4907321;29;19920;-84
2024/01/31 15:28:19;;;;;;;;;;;;;;;5.44;100.00;101148.78;4908272;29;19930;-81
2024/01/31 15:30:45;;;;;;;;;;;;;;;5.42;100.00;101151.41;4890934;29;20375;-82
2024/01/31 15:33:10;;;;;;;;;;;;;;;5.37;100.00;101142.66;4908870;29;19966;-80
2024/01/31 15:35:36;;;;;;;;;;;;;;;5.39;100.00;101145.28;4908335;29;19920;-83
2024/01/31 15:38:01;;;;;;;;;;;;;;;5.36;100.00;101140.03;4908679;29;19923;-82
2024/01/31 15:40:28;;;;;;;;;;;;;;;5.42;100.00;101137.41;4890739;29;20043;-83
2024/01/31 15:42:53;;;;;;;;;;;;;;;5.41;100.00;101143.56;4908136;29;19923;-83
2024/01/31 15:45:20;;;;;;;;;;;;;;;5.43;100.00;101141.78;4908527;29;19925;-83
2024/01/31 15:47:45;;;;;;;;;;;;;;;5.38;100.00;101130.41;4908368;29;19970;-81
2024/01/31 15:50:10;;;;;;;;;;;;;;;5.41;100.00;101130.41;4908583;29;19970;-80
2024/01/31 15:52:35;;;;;;;;;;;;;;;5.49;100.00;101130.38;4907052;29;19927;-81
2024/01/31 15:55:01;;;;;;;;;;;;;;;5.45;100.00;101124.25;4890833;29;19934;-82
2024/01/31 15:57:26;;;;;;;;;;;;;;;5.42;100.00;101125.13;4890528;29;19988;-83
2024/01/31 15:59:53;;;;;;;;;;;;;;;5.39;100.00;101116.38;4890808;29;19930;-86
2024/01/31 16:02:18;;;;;;;;;;;;;;;5.39;100.00;101112.00;4906352;29;19963;-83
2024/01/31 16:04:44;;;;;;;;;;;;;;;5.38;100.00;101117.25;4906774;29;19973;-81
2024/01/31 16:07:09;;;;;;;;;;;;;;;5.41;100.00;101107.63;4909787;29;19919;-83
2024/01/31 16:09:34;;;;;;;;;;;;;;;5.39;100.00;101103.22;4907379;29;19923;-83
2024/01/31 16:12:00;;;;;;;;;;;;;;;5.41;100.00;101104.13;4906598;29;19947;-87
2024/01/31 16:14:25;;;;;;;;;;;;;;;5.39;100.00;101111.09;4907913;29;19966;-84
2024/01/31 16:16:50;;;;;;;;;;;;;;;5.37;100.00;101105.00;4907493;29;19924;-83
2024/01/31 16:19:16;;;;;;;;;;;;;;;5.40;100.00;101102.34;4890395;29;19923;-82
2024/01/31 16:21:44;;;;;;;;;;;;;;;5.40;100.00;101099.72;4907667;29;20398;-82
2024/01/31 16:24:10;;;;;;;;;;;;;;;5.43;100.00;101105.00;4907504;29;20391;-83
2024/01/31 16:26:37;;;;;;;;;;;;;;;5.39;100.00;101097.97;4906221;29;19958;-81
2024/01/31 16:29:03;;;;;;;;;;;;;;;5.37;100.00;101099.72;4890333;29;19920;-81
2024/01/31 16:31:28;;;;;;;;;;;;;;;5.42;100.00;101092.72;4907121;29;19930;-82
2024/01/31 16:33:53;;;;;;;;;;;;;;;5.40;100.00;101090.06;4890910;29;19919;-83
2024/01/31 16:36:19;;;;;;;;;;;;;;;5.39;100.00;101090.97;4904018;29;20017;-83
2024/01/31 16:38:44;;;;;;;;;;;;;;;5.36;100.00;101084.81;4906984;29;19923;-81
2024/01/31 16:41:30;;;;;;;;;;;;;;;5.39;100.00;101080.47;4904978;29;20318;-82
2024/01/31 16:43:56;;;;;;;;;;;;;;;5.35;100.00;101081.31;4905439;29;19927;-83
2024/01/31 16:46:22;;;;;;;;;;;;;;;5.38;100.00;101070.81;4907227;29;19919;-81
2024/01/31 16:48:50;;;;;;;;;;;;;;;5.39;100.00;101062.06;4907318;29;19930;-82
2024/01/31 16:51:19;;;;;;;;;;;;;;;5.36;100.00;101062.06;4906639;29;20387;-83
2024/01/31 16:53:45;;;;;;;;;;;;;;;5.39;100.00;101061.16;4906611;29;19959;-84
2024/01/31 16:56:10;;;;;;;;;;;;;;;5.38;100.00;101069.94;4905752;29;19950;-82
2024/01/31 16:58:35;;;;;;;;;;;;;;;5.41;100.00;101073.44;4907165;29;20401;-81
2024/01/31 17:01:01;;;;;;;;;;;;;;;5.40;100.00;101066.41;4907352;29;19925;-81
2024/01/31 17:03:26;;;;;;;;;;;;;;;5.38;100.00;101070.81;4906466;29;20375;-80
2024/01/31 17:05:52;;;;;;;;;;;;;;;5.41;100.00;101080.47;4906495;29;19966;-82
2024/01/31 17:08:17;;;;;;;;;;;;;;;5.40;100.00;101082.19;4906629;29;20332;-82
2024/01/31 17:10:43;;;;;;;;;;;;;;;5.41;100.00;101085.72;4905440;29;19923;-82
2024/01/31 17:13:13;;;;;;;;;;;;;;;5.39;100.00;101084.81;4907003;29;20375;-82
2024/01/31 17:15:38;;;;;;;;;;;;;;;5.41;100.00;101083.97;4906906;29;19979;-84
2024/01/31 17:18:04;;;;;;;;;;;;;;;5.42;100.00;101083.06;4906645;29;19919;-83
2024/01/31 17:20:30;;;;;;;;;;;;;;;5.41;100.00;101081.31;4889271;29;19931;-82
2024/01/31 17:22:56;;;;;;;;;;;;;;;5.35;100.00;101072.56;4906949;29;19919;-82
2024/01/31 17:25:23;;;;;;;;;;;;;;;5.39;100.00;101076.94;4905419;29;19934;-82
2024/01/31 17:27:48;;;;;;;;;;;;;;;5.42;100.00;101076.94;4906174;29;19986;-83
2024/01/31 17:30:14;;;;;;;;;;;;;;;5.43;100.00;101078.69;4906410;29;19919;-81
2024/01/31 17:32:39;;;;;;;;;;;;;;;5.43;100.00;101076.06;4906692;29;19972;-83
2024/01/31 17:35:04;;;;;;;;;;;;;;;5.39;100.00;101077.84;4906522;29;19922;-82
2024/01/31 17:37:30;;;;;;;;;;;;;;;5.45;100.00;101072.53;4906168;29;19930;-83
2024/01/31 17:39:55;;;;;;;;;;;;;;;5.39;100.00;101064.69;4905976;29;19919;-83
2024/01/31 17:42:20;;;;;;;;;;;;;;;5.39;100.00;101056.81;4905869;29;20023;-83
2024/01/31 17:44:45;;;;;;;;;;;;;;;5.37;100.00;101052.41;4906168;29;20336;-82
2024/01/31 17:47:11;;;;;;;;;;;;;;;5.37;100.00;101057.66;4906632;29;19929;-83
2024/01/31 17:49:36;;;;;;;;;;;;;;;5.40;100.00;101063.78;4906178;29;19920;-82
2024/01/31 17:52:01;;;;;;;;;;;;;;;5.45;100.00;101050.66;4906144;29;20371;-82
2024/01/31 17:54:26;;;;;;;;;;;;;;;5.40;100.00;101058.53;4910090;29;19923;-82
2024/01/31 17:56:54;;;;;;;;;;;;;;;5.40;100.00;101058.53;4908785;29;20391;-82
2024/01/31 17:59:20;;;;;;;;;;;;;;;5.40;100.00;101060.31;4909890;29;19920;-82
2024/01/31 18:01:45;;;;;;;;;;;;;;;5.43;100.00;101057.66;4892892;29;19922;-82
2024/01/31 18:04:10;;;;;;;;;;;;;;;5.44;100.00;101051.50;4910569;29;20647;-81
2024/01/31 18:06:35;;;;;;;;;;;;;;;5.42;100.00;101061.16;4909800;29;20417;-80
2024/01/31 18:09:00;;;;;;;;;;;;;;;5.40;100.00;101060.31;4910074;29;19920;-88
2024/01/31 18:11:26;;;;;;;;;;;;;;;5.40;100.00;101062.94;4908702;29;19975;-80
2024/01/31 18:13:51;;;;;;;;;;;;;;;5.41;100.00;101055.03;4909316;29;19943;-81
2024/01/31 18:16:17;;;;;;;;;;;;;;;5.39;100.00;101063.78;4909840;29;20299;-82
2024/01/31 18:18:42;;;;;;;;;;;;;;;5.42;100.00;101066.41;4909657;29;19931;-81
2024/01/31 18:21:08;;;;;;;;;;;;;;;5.45;100.00;101071.69;4910151;29;20299;-81
2024/01/31 18:23:33;;;;;;;;;;;;;;;5.36;100.00;101066.44;4909483;29;19981;-81
2024/01/31 18:25:58;;;;;;;;;;;;;;;5.38;100.00;101065.56;4908571;29;19953;-80
2024/01/31 18:28:24;;;;;;;;;;;;;;;5.41;100.00;101080.47;4910045;29;19930;-84
2024/01/31 18:30:49;;;;;;;;;;;;;;;5.40;100.00;101094.47;4909376;29;19926;-78
2024/01/31 18:33:14;;;;;;;;;;;;;;;5.41;100.00;101088.34;4909513;29;20447;-81
2024/01/31 18:35:39;;;;;;;;;;;;;;;5.41;100.00;101085.72;4909478;29;19962;-83
2024/01/31 18:38:05;;;;;;;;;;;;;;;5.48;100.00;101084.81;4892717;29;19931;-81
2024/01/31 18:40:30;;;;;;;;;;;;;;;5.48;100.00;101092.72;4908169;29;19919;-81
2024/01/31 18:42:55;;;;;;;;;;;;;;;5.43;100.00;101083.97;4909488;29;19989;-80